Time,TemperatureF,DewpointF,PressureIn,WindDirection,WindDirectionDegrees,WindSpeedMPH,WindSpeedGustMPH,Humidity,HourlyPrecipIn,Conditions,Clouds,dailyrainin,SolarRadiationWatts/m^2,SoftwareType,DateUTC
2014-03-19 00:08:00,38.0,36.7,29.62,NNE,25,0.0,0.0,95,0.06,RA,,0.01,0.0,WeatherDisplay:10.37,2014-03-19 05:08:00,
2014-03-19 00:13:00,37.8,36.5,29.62,NNE,26,0.0,0.0,95,0.06,RA,,0.01,0.0,WeatherDisplay:10.37,2014-03-19 05:13:00,
2014-03-19 00:18:00,37.7,36.4,29.62,NNE,30,0.0,0.0,95,0.04,,,0.01,0.0,WeatherDisplay:10.37,2014-03-19 05:18:00,
2014-03-19 00:23:00,37.6,36.3,29.62,North,11,0.0,0.0,95,0.04,,,0.01,0.0,WeatherDisplay:10.37,2014-03-19 05:23:00,
2014-03-19 00:28:00,37.4,36.1,29.62,NNE,23,0.0,0.0,95,0.03,,,0.01,0.0,WeatherDisplay:10.37,2014-03-19 05:28:00,
2014-03-19 00:33:00,37.3,36.0,29.62,NNE,28,0.0,0.0,95,0.04,RA,,0.02,0.0,WeatherDisplay:10.37,2014-03-19 05:33:00,
2014-03-19 00:38:00,37.1,35.8,29.62,NNE,26,0.0,0.0,95,0.03,RA,,0.02,0.0,WeatherDisplay:10.37,2014-03-19 05:38:00,
2014-03-19 00:43:00,36.9,35.6,29.62,NNE,19,10.4,10.4,95,0.03,,,0.02,0.0,WeatherDisplay:10.37,2014-03-19 05:43:00,
2014-03-19 00:48:00,36.7,35.4,29.62,NNE,27,0.0,0.0,95,0.03,,,0.02,0.0,WeatherDisplay:10.37,2014-03-19 05:48:00,
2014-03-19 00:53:00,36.6,35.3,29.62,NNE,32,0.0,0.0,95,0.02,,,0.02,0.0,WeatherDisplay:10.37,2014-03-19 05:53:00,
2014-03-19 00:58:00,36.5,35.2,29.62,NNE,32,0.0,0.0,95,0.02,,,0.02,0.0,WeatherDisplay:10.37,2014-03-19 05:58:00,
2014-03-19 01:03:00,36.4,35.1,29.62,NNE,23,0.0,0.0,95,0.03,RA,,0.03,0.0,WeatherDisplay:10.37,2014-03-19 06:03:00,
2014-03-19 01:08:00,36.3,35.0,29.62,NNE,28,0.0,0.0,95,0.02,RA,,0.03,0.0,WeatherDisplay:10.37,2014-03-19 06:08:00,
2014-03-19 01:13:00,36.2,34.9,29.61,NE,36,0.0,0.0,95,0.02,,,0.03,0.0,WeatherDisplay:10.37,2014-03-19 06:13:00,
2014-03-19 01:18:00,36.1,34.8,29.61,NNE,21,0.0,0.0,95,0.02,,,0.03,0.0,WeatherDisplay:10.37,2014-03-19 06:18:00,
2014-03-19 01:23:00,36.0,34.7,29.61,NNE,20,2.3,2.3,95,0.03,RA,,0.04,0.0,WeatherDisplay:10.37,2014-03-19 06:23:00,
2014-03-19 01:28:00,36.0,34.7,29.62,NNE,24,0.0,0.0,95,0.03,RA,,0.04,0.0,WeatherDisplay:10.37,2014-03-19 06:28:00,
2014-03-19 01:33:00,35.9,34.6,29.62,NNE,22,4.0,4.0,95,0.02,,,0.04,0.0,WeatherDisplay:10.37,2014-03-19 06:33:00,
2014-03-19 01:38:00,35.8,34.5,29.62,NNE,22,7.0,7.0,95,0.03,RA,,0.05,0.0,WeatherDisplay:10.37,2014-03-19 06:38:00,
2014-03-19 01:43:00,35.7,34.4,29.62,NNE,17,4.6,4.6,95,0.03,RA,,0.05,0.0,WeatherDisplay:10.37,2014-03-19 06:43:00,
2014-03-19 01:48:00,35.6,34.3,29.62,North,355,7.0,7.0,95,0.03,,,0.05,0.0,WeatherDisplay:10.37,2014-03-19 06:48:00,
2014-03-19 01:53:00,35.6,34.3,29.62,North,355,9.2,9.2,95,0.03,,,0.05,0.0,WeatherDisplay:10.37,2014-03-19 06:53:00,
2014-03-19 01:58:00,35.5,34.2,29.62,North,355,9.2,9.2,95,0.03,,,0.05,0.0,WeatherDisplay:10.37,2014-03-19 06:58:00,
2014-03-19 02:03:00,35.4,34.1,29.62,North,350,10.4,10.4,95,0.02,,,0.05,0.0,WeatherDisplay:10.37,2014-03-19 07:03:00,
2014-03-19 02:08:00,35.3,34.0,29.62,NNW,345,10.4,10.4,95,0.02,,,0.05,0.0,WeatherDisplay:10.37,2014-03-19 07:08:00,
2014-03-19 02:13:00,35.2,33.9,29.62,NNW,343,21.9,21.9,95,0.02,,,0.05,0.0,WeatherDisplay:10.37,2014-03-19 07:13:00,
2014-03-19 02:18:00,35.1,33.8,29.62,NNW,344,10.4,10.4,95,0.02,,,0.05,0.0,WeatherDisplay:10.37,2014-03-19 07:18:00,
2014-03-19 02:23:00,35.0,33.7,29.62,NNW,344,11.5,11.5,95,0.01,,,0.05,0.0,WeatherDisplay:10.37,2014-03-19 07:23:00,
2014-03-19 02:28:00,34.9,33.6,29.62,NNW,348,10.4,10.4,95,0.02,RA,,0.06,0.0,WeatherDisplay:10.37,2014-03-19 07:28:00,
2014-03-19 02:33:00,34.8,33.5,29.62,NNW,347,10.4,10.4,95,0.02,RA,,0.06,0.0,WeatherDisplay:10.37,2014-03-19 07:33:00,
2014-03-19 02:38:00,34.7,33.4,29.62,North,350,10.4,10.4,95,0.01,,,0.06,0.0,WeatherDisplay:10.37,2014-03-19 07:38:00,
2014-03-19 02:43:00,34.6,33.3,29.63,NNW,348,12.7,12.7,95,0.01,,,0.06,0.0,WeatherDisplay:10.37,2014-03-19 07:43:00,
2014-03-19 02:48:00,34.5,33.2,29.63,NNW,345,11.5,11.5,95,0.01,,,0.06,0.0,WeatherDisplay:10.37,2014-03-19 07:48:00,
2014-03-19 02:53:00,34.5,33.2,29.63,NNW,336,18.4,18.4,95,0.01,,,0.06,0.0,WeatherDisplay:10.37,2014-03-19 07:53:00,
2014-03-19 02:58:00,34.5,33.2,29.64,NNW,346,11.5,11.5,95,0.01,,,0.06,0.0,WeatherDisplay:10.37,2014-03-19 07:58:00,
2014-03-19 03:03:00,34.5,33.2,29.64,NNW,348,12.7,12.7,95,0.01,,,0.06,0.0,WeatherDisplay:10.37,2014-03-19 08:03:00,
2014-03-19 03:08:00,34.5,33.2,29.64,NNW,338,10.4,10.4,95,0.01,,,0.06,0.0,WeatherDisplay:10.37,2014-03-19 08:08:00,
2014-03-19 03:13:00,34.4,33.1,29.64,NNW,336,8.1,8.1,95,0.01,,,0.06,0.0,WeatherDisplay:10.37,2014-03-19 08:13:00,
2014-03-19 03:18:00,34.4,33.1,29.64,NW,323,11.5,11.5,95,0.01,,,0.06,0.0,WeatherDisplay:10.37,2014-03-19 08:18:00,
2014-03-19 03:23:00,34.4,33.1,29.64,NNW,329,11.0,11.0,95,0.01,,,0.06,0.0,WeatherDisplay:10.37,2014-03-19 08:23:00,
2014-03-19 03:28:00,34.1,32.8,29.64,NNW,329,10.4,10.4,95,0.00,,,0.06,0.0,WeatherDisplay:10.37,2014-03-19 08:28:00,
2014-03-19 03:33:00,33.9,32.6,29.64,NNW,335,11.5,11.5,95,0.00,,,0.06,0.0,WeatherDisplay:10.37,2014-03-19 08:33:00,
2014-03-19 03:38:00,33.8,32.5,29.64,NNW,328,10.4,10.4,95,0.00,,,0.06,0.0,WeatherDisplay:10.37,2014-03-19 08:38:00,
2014-03-19 03:43:00,33.7,32.4,29.64,NNW,331,6.9,6.9,95,0.00,,,0.06,0.0,WeatherDisplay:10.37,2014-03-19 08:43:00,
2014-03-19 03:48:00,33.6,32.3,29.64,NNW,333,10.0,10.0,95,0.01,RA,,0.07,0.0,WeatherDisplay:10.37,2014-03-19 08:48:00,
2014-03-19 03:53:00,33.6,32.3,29.64,NNW,344,12.7,12.7,95,0.01,RA,,0.07,0.0,WeatherDisplay:10.37,2014-03-19 08:53:00,
2014-03-19 03:58:00,33.5,32.2,29.64,NNW,335,10.4,10.4,95,0.01,,,0.07,0.0,WeatherDisplay:10.37,2014-03-19 08:58:00,
2014-03-19 04:03:00,33.5,32.2,29.64,NNW,341,13.8,13.8,95,0.01,,,0.07,0.0,WeatherDisplay:10.37,2014-03-19 09:03:00,
2014-03-19 04:08:00,33.4,32.1,29.64,NNW,339,11.5,11.5,95,0.01,,,0.07,0.0,WeatherDisplay:10.37,2014-03-19 09:08:00,
2014-03-19 04:13:00,33.4,32.1,29.65,NNW,331,10.4,10.4,95,0.01,,,0.07,0.0,WeatherDisplay:10.37,2014-03-19 09:13:00,
2014-03-19 04:18:00,33.3,32.0,29.65,NNW,331,11.5,11.5,95,0.01,,,0.07,0.0,WeatherDisplay:10.37,2014-03-19 09:18:00,
2014-03-19 04:23:00,33.2,31.9,29.65,NNW,336,11.5,11.5,95,0.01,,,0.07,0.0,WeatherDisplay:10.37,2014-03-19 09:23:00,
2014-03-19 04:28:00,33.2,31.9,29.65,NNW,334,15.0,15.0,95,0.01,,,0.07,0.0,WeatherDisplay:10.37,2014-03-19 09:28:00,
2014-03-19 04:33:00,33.2,31.9,29.65,NNW,340,16.1,16.1,95,0.01,,,0.07,0.0,WeatherDisplay:10.37,2014-03-19 09:33:00,
2014-03-19 04:38:00,33.2,31.9,29.65,NW,321,0.0,0.0,95,0.01,,,0.07,0.0,WeatherDisplay:10.37,2014-03-19 09:38:00,
2014-03-19 04:43:00,33.2,31.9,29.66,NNW,334,0.0,0.0,95,0.01,,,0.07,0.0,WeatherDisplay:10.37,2014-03-19 09:43:00,
2014-03-19 04:48:00,33.2,31.9,29.66,NW,323,0.0,0.0,95,0.00,,,0.07,0.0,WeatherDisplay:10.37,2014-03-19 09:48:00,
2014-03-19 04:53:00,33.2,31.9,29.66,NNW,332,0.0,0.0,95,0.00,,,0.07,0.0,WeatherDisplay:10.37,2014-03-19 09:53:00,
2014-03-19 04:58:00,33.2,31.9,29.67,NW,325,0.0,0.0,95,0.00,,,0.07,0.0,WeatherDisplay:10.37,2014-03-19 09:58:00,
2014-03-19 05:03:00,33.2,31.9,29.67,NNW,339,0.0,0.0,95,0.00,,,0.07,0.0,WeatherDisplay:10.37,2014-03-19 10:03:00,
2014-03-19 05:08:00,33.2,31.9,29.67,NW,320,0.0,0.0,95,0.00,,,0.07,0.0,WeatherDisplay:10.37,2014-03-19 10:08:00,
2014-03-19 05:13:00,33.2,31.9,29.68,NW,308,0.0,0.0,95,0.01,RA,,0.08,0.0,WeatherDisplay:10.37,2014-03-19 10:13:00,
2014-03-19 05:18:00,33.2,31.9,29.68,NW,321,0.0,0.0,95,0.01,RA,,0.08,0.0,WeatherDisplay:10.37,2014-03-19 10:18:00,
2014-03-19 05:24:00,33.2,31.9,29.68,NNW,331,0.0,0.0,95,0.01,,,0.08,0.0,WeatherDisplay:10.37,2014-03-19 10:24:00,
2014-03-19 05:29:00,33.3,32.0,29.69,NW,317,0.0,0.0,95,0.01,,,0.08,0.0,WeatherDisplay:10.37,2014-03-19 10:29:00,
2014-03-19 05:34:00,33.2,31.9,29.69,NW,320,0.0,0.0,95,0.01,,,0.08,0.0,WeatherDisplay:10.37,2014-03-19 10:34:00,
2014-03-19 05:39:00,33.2,31.9,29.69,NW,318,13.8,13.8,95,0.01,,,0.08,0.0,WeatherDisplay:10.37,2014-03-19 10:39:00,
2014-03-19 05:44:00,33.0,31.7,29.70,NW,325,0.0,0.0,95,0.01,,,0.08,0.0,WeatherDisplay:10.37,2014-03-19 10:44:00,
2014-03-19 05:49:00,32.9,31.6,29.70,WNW,302,1.1,0.0,95,0.01,,,0.08,0.0,WeatherDisplay:10.37,2014-03-19 10:49:00,
2014-03-19 05:54:00,32.8,31.5,29.70,NW,317,19.6,19.6,95,0.01,,,0.08,0.0,WeatherDisplay:10.37,2014-03-19 10:54:00,
2014-03-19 05:59:00,32.6,31.3,29.70,NW,315,19.6,19.6,95,0.01,CLR,,0.08,0.0,WeatherDisplay:10.37,2014-03-19 10:59:00,
2014-03-19 06:04:00,32.3,31.0,29.70,NW,316,21.9,21.9,95,0.01,CLR,,0.08,0.0,WeatherDisplay:10.37,2014-03-19 11:04:00,
2014-03-19 06:09:00,32.1,30.8,29.70,NW,306,15.0,15.0,95,0.01,CLR,,0.08,0.0,WeatherDisplay:10.37,2014-03-19 11:09:00,
2014-03-19 06:14:00,32.0,30.7,29.72,NW,321,13.8,13.8,95,0.00,CLR,,0.08,0.0,WeatherDisplay:10.37,2014-03-19 11:14:00,
2014-03-19 06:19:00,31.7,30.4,29.72,NW,322,23.0,23.0,95,0.00,CLR,,0.08,0.0,WeatherDisplay:10.37,2014-03-19 11:19:00,
2014-03-19 06:24:00,31.4,30.1,29.72,NW,311,0.0,0.0,95,0.00,CLR,,0.08,0.0,WeatherDisplay:10.37,2014-03-19 11:24:00,
2014-03-19 06:29:00,31.3,29.8,29.72,NW,319,0.0,0.0,94,0.00,CLR,,0.08,0.0,WeatherDisplay:10.37,2014-03-19 11:29:00,
2014-03-19 06:34:00,31.3,30.0,29.72,NW,311,0.0,0.0,95,0.00,CLR,,0.08,0.0,WeatherDisplay:10.37,2014-03-19 11:34:00,
2014-03-19 06:39:00,31.2,29.7,29.72,NW,313,0.0,0.0,94,0.00,CLR,,0.08,0.0,WeatherDisplay:10.37,2014-03-19 11:39:00,
2014-03-19 06:44:00,31.0,29.5,29.74,NW,308,0.0,0.0,94,0.00,CLR,,0.08,0.0,WeatherDisplay:10.37,2014-03-19 11:44:00,
2014-03-19 06:49:00,31.1,29.6,29.74,NW,313,0.0,0.0,94,0.00,CLR,,0.08,0.0,WeatherDisplay:10.37,2014-03-19 11:49:00,
2014-03-19 06:54:00,31.1,29.3,29.74,NW,317,0.0,0.0,93,0.00,CLR,,0.08,0.0,WeatherDisplay:10.37,2014-03-19 11:54:00,
2014-03-19 06:59:00,31.0,29.2,29.74,NW,310,0.0,0.0,93,0.00,,,0.08,0.0,WeatherDisplay:10.37,2014-03-19 11:59:00,
2014-03-19 07:04:00,31.0,29.2,29.74,NW,311,0.0,0.0,93,0.00,,,0.08,0.0,WeatherDisplay:10.37,2014-03-19 12:04:00,
2014-03-19 07:09:00,31.0,29.2,29.75,NNW,327,0.0,0.0,93,0.00,,,0.08,0.0,WeatherDisplay:10.37,2014-03-19 12:09:00,
2014-03-19 07:14:00,30.9,29.1,29.75,NNW,329,2.3,0.0,93,0.00,,,0.08,0.0,WeatherDisplay:10.37,2014-03-19 12:14:00,
2014-03-19 07:19:00,30.9,29.1,29.75,NW,316,2.3,2.3,93,0.00,,,0.08,0.0,WeatherDisplay:10.37,2014-03-19 12:19:00,
2014-03-19 07:24:00,30.9,29.1,29.76,NW,313,21.0,21.0,93,0.00,,,0.08,0.0,WeatherDisplay:10.37,2014-03-19 12:24:00,
2014-03-19 07:29:00,30.7,28.7,29.76,WNW,295,25.3,25.3,92,0.00,BKN,,0.08,5.0,WeatherDisplay:10.37,2014-03-19 12:29:00,
2014-03-19 07:34:00,30.7,28.7,29.76,NW,321,19.6,19.6,92,0.00,BKN,,0.08,7.0,WeatherDisplay:10.37,2014-03-19 12:34:00,
2014-03-19 07:39:00,30.7,28.7,29.77,NW,316,13.8,13.8,92,0.00,BKN,,0.08,7.0,WeatherDisplay:10.37,2014-03-19 12:39:00,
2014-03-19 07:44:00,30.7,28.7,29.77,NW,311,19.6,19.6,92,0.00,BKN,,0.08,11.0,WeatherDisplay:10.37,2014-03-19 12:44:00,
2014-03-19 07:49:00,30.7,28.7,29.77,NNW,329,18.4,18.4,92,0.00,BKN,,0.08,9.0,WeatherDisplay:10.37,2014-03-19 12:49:00,
2014-03-19 07:54:00,30.7,28.7,29.78,NNW,343,23.0,23.0,92,0.00,BKN,,0.08,9.0,WeatherDisplay:10.37,2014-03-19 12:54:00,
2014-03-19 07:59:00,30.5,28.5,29.78,NNW,344,0.0,0.1,92,0.00,BKN,,0.08,9.0,WeatherDisplay:10.37,2014-03-19 12:59:00,
2014-03-19 08:04:00,30.4,28.4,29.78,NNW,329,15.0,15.0,92,0.00,BKN,,0.08,12.0,WeatherDisplay:10.37,2014-03-19 13:04:00,
2014-03-19 08:09:00,30.3,28.0,29.79,NW,319,24.2,24.2,91,0.00,BKN,,0.08,14.0,WeatherDisplay:10.37,2014-03-19 13:09:00,
2014-03-19 08:14:00,30.3,28.0,29.79,NW,308,24.2,24.2,91,0.00,BKN,,0.08,18.0,WeatherDisplay:10.37,2014-03-19 13:14:00,
2014-03-19 08:19:00,30.2,27.9,29.79,NW,304,19.6,19.6,91,0.00,BKN,,0.08,25.0,WeatherDisplay:10.37,2014-03-19 13:19:00,
2014-03-19 08:24:00,30.2,27.9,29.80,NW,323,16.1,16.1,91,0.00,BKN,,0.08,28.0,WeatherDisplay:10.37,2014-03-19 13:24:00,
2014-03-19 08:29:00,30.2,27.9,29.80,NW,313,18.4,18.4,91,0.00,BKN,,0.08,30.0,WeatherDisplay:10.37,2014-03-19 13:29:00,
2014-03-19 08:34:00,30.2,27.9,29.80,NNW,327,20.7,20.7,91,0.00,BKN,,0.08,30.0,WeatherDisplay:10.37,2014-03-19 13:34:00,
2014-03-19 08:39:00,30.2,27.9,29.81,WNW,298,19.6,19.6,91,0.00,BKN,,0.08,33.0,WeatherDisplay:10.37,2014-03-19 13:39:00,
2014-03-19 08:44:00,30.2,27.9,29.81,NW,311,19.6,19.6,91,0.00,BKN,,0.08,26.0,WeatherDisplay:10.37,2014-03-19 13:44:00,
2014-03-19 08:49:00,30.3,28.0,29.81,NW,322,19.6,19.6,91,0.00,BKN,,0.08,40.0,WeatherDisplay:10.37,2014-03-19 13:49:00,
2014-03-19 08:54:00,30.3,28.0,29.81,NW,321,17.0,17.0,91,0.00,BKN,,0.08,47.0,WeatherDisplay:10.37,2014-03-19 13:54:00,
2014-03-19 08:59:00,30.3,28.0,29.81,NNW,342,18.4,18.4,91,0.00,BKN,,0.08,58.0,WeatherDisplay:10.37,2014-03-19 13:59:00,
2014-03-19 09:04:00,30.4,28.1,29.81,NW,309,20.0,20.0,91,0.00,BKN,,0.08,63.0,WeatherDisplay:10.37,2014-03-19 14:04:00,
2014-03-19 09:09:00,30.3,28.0,29.82,North,350,28.8,28.8,91,0.00,BKN,,0.08,60.0,WeatherDisplay:10.37,2014-03-19 14:09:00,
2014-03-19 09:14:00,30.3,28.0,29.82,NW,307,20.0,20.0,91,0.00,BKN,,0.08,65.0,WeatherDisplay:10.37,2014-03-19 14:14:00,
2014-03-19 09:19:00,30.4,28.1,29.82,NW,312,18.4,18.4,91,0.00,BKN,,0.08,95.0,WeatherDisplay:10.37,2014-03-19 14:19:00,
2014-03-19 09:24:00,30.4,27.8,29.84,NW,314,19.6,19.6,90,0.00,BKN,,0.08,90.0,WeatherDisplay:10.37,2014-03-19 14:24:00,
2014-03-19 09:29:00,30.4,27.8,29.84,NNW,332,14.0,14.0,90,0.00,BKN,,0.08,98.0,WeatherDisplay:10.37,2014-03-19 14:29:00,
2014-03-19 09:34:00,30.5,27.9,29.84,NW,311,26.5,26.5,90,0.00,BKN,,0.08,120.0,WeatherDisplay:10.37,2014-03-19 14:34:00,
2014-03-19 09:39:00,30.5,27.9,29.84,NW,313,23.0,23.0,90,0.00,BKN,,0.08,132.0,WeatherDisplay:10.37,2014-03-19 14:39:00,
2014-03-19 09:44:00,30.6,27.7,29.84,NW,309,17.3,17.3,89,0.00,BKN,,0.08,141.0,WeatherDisplay:10.37,2014-03-19 14:44:00,
2014-03-19 09:49:00,30.7,27.8,29.84,WNW,303,0.0,0.0,89,0.00,BKN,,0.08,121.0,WeatherDisplay:10.37,2014-03-19 14:49:00,
2014-03-19 09:54:00,30.8,27.9,29.85,NNW,333,19.6,19.6,89,0.00,BKN,,0.08,102.0,WeatherDisplay:10.37,2014-03-19 14:54:00,
2014-03-19 09:59:00,30.9,28.3,29.85,WNW,303,12.7,12.7,90,0.00,BKN,,0.08,109.0,WeatherDisplay:10.37,2014-03-19 14:59:00,
2014-03-19 10:04:00,31.0,28.1,29.85,NW,319,18.4,18.4,89,0.00,BKN,,0.08,114.0,WeatherDisplay:10.37,2014-03-19 15:04:00,
2014-03-19 10:09:00,31.1,28.5,29.85,NW,308,20.7,20.7,90,0.00,BKN,,0.08,132.0,WeatherDisplay:10.37,2014-03-19 15:09:00,
2014-03-19 10:14:00,31.2,28.3,29.85,WNW,301,18.4,18.4,89,0.00,BKN,,0.08,134.0,WeatherDisplay:10.37,2014-03-19 15:14:00,
2014-03-19 10:19:00,31.2,28.3,29.85,WNW,296,23.0,23.0,89,0.00,BKN,,0.08,207.0,WeatherDisplay:10.37,2014-03-19 15:19:00,
2014-03-19 10:24:00,31.3,28.4,29.86,NW,323,18.4,0.0,89,0.00,BKN,,0.08,200.0,WeatherDisplay:10.37,2014-03-19 15:24:00,
2014-03-19 10:29:00,31.4,28.3,29.86,NW,321,19.6,19.6,88,0.00,BKN,,0.08,199.0,WeatherDisplay:10.37,2014-03-19 15:29:00,
2014-03-19 10:34:00,31.6,28.5,29.86,NW,318,21.0,21.0,88,0.00,BKN,,0.08,211.0,WeatherDisplay:10.37,2014-03-19 15:34:00,
2014-03-19 10:39:00,31.6,28.2,29.87,NW,312,20.7,0.0,87,0.00,BKN,,0.08,220.0,WeatherDisplay:10.37,2014-03-19 15:39:00,
2014-03-19 10:44:00,31.6,27.9,29.87,NW,315,27.6,27.6,86,0.00,BKN,,0.08,229.0,WeatherDisplay:10.37,2014-03-19 15:44:00,
2014-03-19 10:49:00,31.7,28.0,29.87,NW,308,23.0,0.0,86,0.00,BKN,,0.08,246.0,WeatherDisplay:10.37,2014-03-19 15:49:00,
2014-03-19 10:54:00,31.6,27.9,29.88,NW,313,24.2,24.2,86,0.00,BKN,,0.08,295.0,WeatherDisplay:10.37,2014-03-19 15:54:00,
2014-03-19 10:59:00,31.8,28.4,29.88,NW,313,17.3,17.3,87,0.00,SCT,,0.08,308.0,WeatherDisplay:10.37,2014-03-19 15:59:00,
2014-03-19 11:04:00,31.8,28.1,29.88,NW,321,17.3,17.3,86,0.00,SCT,,0.08,272.0,WeatherDisplay:10.37,2014-03-19 16:04:00,
2014-03-19 11:09:00,31.7,27.7,29.89,NW,314,16.0,16.0,85,0.00,SCT,,0.08,334.0,WeatherDisplay:10.37,2014-03-19 16:09:00,
2014-03-19 11:14:00,32.0,28.3,29.89,WNW,303,19.0,19.0,86,0.00,SCT,,0.08,322.0,WeatherDisplay:10.37,2014-03-19 16:14:00,
2014-03-19 11:19:00,32.3,28.3,29.89,NW,318,24.2,24.2,85,0.00,SCT,,0.08,805.0,WeatherDisplay:10.37,2014-03-19 16:19:00,
2014-03-19 11:24:00,33.0,29.3,29.89,NW,307,21.9,21.9,86,0.00,FEW,,0.08,288.0,WeatherDisplay:10.37,2014-03-19 16:24:00,
2014-03-19 11:29:00,33.3,29.0,29.89,NW,310,19.6,19.6,84,0.00,FEW,,0.08,758.0,WeatherDisplay:10.37,2014-03-19 16:29:00,
2014-03-19 11:34:00,33.9,29.6,29.89,NW,316,31.1,31.1,84,0.00,FEW,,0.08,758.0,WeatherDisplay:10.37,2014-03-19 16:34:00,
2014-03-19 11:39:00,33.8,28.9,29.89,NW,316,26.5,26.5,82,0.00,CLR,,0.08,819.0,WeatherDisplay:10.37,2014-03-19 16:39:00,
2014-03-19 11:45:00,34.2,29.6,29.89,NW,311,27.6,27.6,83,0.00,CLR,,0.08,749.0,WeatherDisplay:10.37,2014-03-19 16:45:00,
2014-03-19 11:49:00,34.3,29.4,29.89,NW,309,27.0,27.0,82,0.00,CLR,,0.08,766.0,WeatherDisplay:10.37,2014-03-19 16:49:00,
2014-03-19 11:55:00,34.4,29.5,29.89,NW,305,28.8,28.8,82,0.00,CLR,,0.08,359.0,WeatherDisplay:10.37,2014-03-19 16:55:00,
2014-03-19 12:00:00,34.4,29.5,29.89,NW,322,29.9,29.9,82,0.00,FEW,,0.08,642.0,WeatherDisplay:10.37,2014-03-19 17:00:00,
2014-03-19 12:05:00,34.4,29.5,29.89,WNW,302,24.2,24.2,82,0.00,SCT,,0.08,512.0,WeatherDisplay:10.37,2014-03-19 17:05:00,
2014-03-19 12:10:00,34.4,28.9,29.90,North,350,26.5,26.5,80,0.00,FEW,,0.08,461.0,WeatherDisplay:10.37,2014-03-19 17:10:00,
2014-03-19 12:15:00,34.3,29.1,29.90,NW,304,19.6,19.6,81,0.00,SCT,,0.08,501.0,WeatherDisplay:10.37,2014-03-19 17:15:00,
2014-03-19 12:20:00,34.4,29.2,29.90,NW,304,26.5,26.5,81,0.00,SCT,,0.08,452.0,WeatherDisplay:10.37,2014-03-19 17:20:00,
2014-03-19 12:24:00,34.4,29.2,29.91,NW,304,19.6,19.6,81,0.00,SCT,,0.08,529.0,WeatherDisplay:10.37,2014-03-19 17:24:00,
2014-03-19 12:30:00,34.4,29.2,29.91,NW,321,22.0,22.0,81,0.00,SCT,,0.08,350.0,WeatherDisplay:10.37,2014-03-19 17:30:00,
2014-03-19 12:35:00,34.4,28.9,29.91,NW,309,23.0,23.0,80,0.00,SCT,,0.08,568.0,WeatherDisplay:10.37,2014-03-19 17:35:00,
2014-03-19 12:40:00,34.4,29.2,29.91,NW,325,24.2,24.2,81,0.00,SCT,,0.08,452.0,WeatherDisplay:10.37,2014-03-19 17:40:00,
2014-03-19 12:45:00,34.4,29.2,29.91,NW,308,20.7,20.7,81,0.00,SCT,,0.08,431.0,WeatherDisplay:10.37,2014-03-19 17:45:00,
2014-03-19 12:50:00,34.4,29.2,29.91,NNW,334,20.0,20.0,81,0.00,SCT,,0.08,401.0,WeatherDisplay:10.37,2014-03-19 17:50:00,
2014-03-19 12:55:00,34.4,29.2,29.91,NW,323,21.9,21.9,81,0.00,SCT,,0.08,396.0,WeatherDisplay:10.37,2014-03-19 17:55:00,
2014-03-19 13:00:00,34.4,29.2,29.91,NW,309,26.5,26.5,81,0.00,SCT,,0.08,422.0,WeatherDisplay:10.37,2014-03-19 18:00:00,
2014-03-19 13:05:00,34.4,28.9,29.91,WNW,303,25.3,25.3,80,0.00,BKN,,0.08,332.0,WeatherDisplay:10.37,2014-03-19 18:05:00,
2014-03-19 13:10:00,34.4,29.2,29.92,NW,319,21.9,21.9,81,0.00,BKN,,0.08,281.0,WeatherDisplay:10.37,2014-03-19 18:10:00,
2014-03-19 13:15:00,34.4,29.2,29.92,NW,311,23.0,23.0,81,0.00,BKN,,0.08,216.0,WeatherDisplay:10.37,2014-03-19 18:15:00,
2014-03-19 13:20:00,34.2,29.0,29.92,NW,305,19.6,19.6,81,0.00,BKN,,0.08,288.0,WeatherDisplay:10.37,2014-03-19 18:20:00,
2014-03-19 13:25:00,34.3,29.1,29.93,WNW,296,19.6,19.6,81,0.00,BKN,,0.08,285.0,WeatherDisplay:10.37,2014-03-19 18:25:00,
2014-03-19 13:30:00,34.4,29.2,29.93,NW,306,21.9,21.9,81,0.00,BKN,,0.08,229.0,WeatherDisplay:10.37,2014-03-19 18:30:00,
2014-03-19 13:35:00,34.2,29.0,29.93,WNW,302,19.6,19.6,81,0.00,BKN,,0.08,234.0,WeatherDisplay:10.37,2014-03-19 18:35:00,
2014-03-19 13:40:00,34.1,28.9,29.93,WNW,303,23.0,23.0,81,0.00,BKN,,0.08,281.0,WeatherDisplay:10.37,2014-03-19 18:40:00,
2014-03-19 13:45:00,34.1,28.6,29.93,WNW,301,21.9,21.9,80,0.00,BKN,,0.08,279.0,WeatherDisplay:10.37,2014-03-19 18:45:00,
2014-03-19 13:50:00,34.4,29.2,29.93,NW,306,21.9,21.9,81,0.00,BKN,,0.08,323.0,WeatherDisplay:10.37,2014-03-19 18:50:00,
2014-03-19 13:55:00,34.3,29.1,29.93,WNW,298,25.3,25.3,81,0.00,BKN,,0.08,183.0,WeatherDisplay:10.37,2014-03-19 18:55:00,
2014-03-19 14:00:00,33.9,28.7,29.93,NW,308,21.9,21.9,81,0.00,BKN,,0.08,220.0,WeatherDisplay:10.37,2014-03-19 19:00:00,
2014-03-19 14:05:00,33.7,27.9,29.93,WNW,300,24.2,24.2,79,0.00,BKN,,0.08,134.0,WeatherDisplay:10.37,2014-03-19 19:05:00,
2014-03-19 14:10:00,33.5,27.7,29.94,WNW,300,16.1,16.1,79,0.00,BKN,,0.08,120.0,WeatherDisplay:10.37,2014-03-19 19:10:00,
2014-03-19 14:15:00,33.5,28.3,29.94,NW,317,0.0,0.0,81,0.00,BKN,,0.08,107.0,WeatherDisplay:10.37,2014-03-19 19:15:00,
2014-03-19 14:20:00,33.5,28.3,29.94,NW,306,0.0,0.0,81,0.00,BKN,,0.08,114.0,WeatherDisplay:10.37,2014-03-19 19:20:00,
2014-03-19 14:25:00,33.4,28.2,29.94,NW,305,0.0,0.0,81,0.00,BKN,,0.08,109.0,WeatherDisplay:10.37,2014-03-19 19:25:00,
2014-03-19 14:30:00,33.3,28.1,29.94,WNW,300,12.7,12.7,81,0.00,BKN,,0.08,118.0,WeatherDisplay:10.37,2014-03-19 19:30:00,
2014-03-19 14:35:00,33.4,28.2,29.94,WNW,294,15.0,15.0,81,0.00,BKN,,0.08,91.0,WeatherDisplay:10.37,2014-03-19 19:35:00,
2014-03-19 14:40:00,33.5,28.3,29.95,WNW,299,16.1,16.1,81,0.00,BKN,,0.08,118.0,WeatherDisplay:10.37,2014-03-19 19:40:00,
2014-03-19 14:45:00,33.5,27.7,29.95,WNW,300,23.0,23.0,79,0.00,BKN,,0.08,125.0,WeatherDisplay:10.37,2014-03-19 19:45:00,
2014-03-19 14:50:00,33.6,27.5,29.95,WNW,303,19.6,19.6,78,0.00,BKN,,0.08,113.0,WeatherDisplay:10.37,2014-03-19 19:50:00,
2014-03-19 14:55:00,33.6,27.5,29.95,NW,304,18.4,18.4,78,0.00,BKN,,0.08,123.0,WeatherDisplay:10.37,2014-03-19 19:55:00,
2014-03-19 15:00:00,33.6,27.8,29.95,WNW,291,20.7,20.7,79,0.00,BKN,,0.08,127.0,WeatherDisplay:10.37,2014-03-19 20:00:00,
2014-03-19 15:05:00,33.6,27.8,29.95,West,277,20.7,20.7,79,0.00,BKN,,0.08,137.0,WeatherDisplay:10.37,2014-03-19 20:05:00,
2014-03-19 15:10:00,33.6,27.5,29.95,NW,304,21.9,21.9,78,0.00,BKN,,0.08,146.0,WeatherDisplay:10.37,2014-03-19 20:10:00,
2014-03-19 15:15:00,33.5,27.4,29.95,WNW,302,20.7,20.7,78,0.00,BKN,,0.08,137.0,WeatherDisplay:10.37,2014-03-19 20:15:00,
2014-03-19 15:20:00,33.5,27.4,29.95,NW,304,20.0,20.0,78,0.00,BKN,,0.08,142.0,WeatherDisplay:10.37,2014-03-19 20:20:00,
2014-03-19 15:25:00,33.5,27.4,29.96,NW,304,19.6,19.6,78,0.00,BKN,,0.08,197.0,WeatherDisplay:10.37,2014-03-19 20:25:00,
2014-03-19 15:30:00,33.5,27.1,29.96,WNW,296,20.7,20.7,77,0.00,BKN,,0.08,207.0,WeatherDisplay:10.37,2014-03-19 20:30:00,
2014-03-19 15:35:00,33.7,26.9,29.96,NW,312,21.9,21.9,76,0.00,BKN,,0.08,162.0,WeatherDisplay:10.37,2014-03-19 20:35:00,
2014-03-19 15:40:00,33.8,27.4,29.96,NW,308,17.0,17.0,77,0.00,BKN,,0.08,160.0,WeatherDisplay:10.37,2014-03-19 20:40:00,
2014-03-19 15:45:00,33.9,27.1,29.96,NW,309,24.0,24.0,76,0.00,BKN,,0.08,185.0,WeatherDisplay:10.37,2014-03-19 20:45:00,
2014-03-19 15:50:00,34.1,27.0,29.96,NW,309,23.0,23.0,75,0.00,BKN,,0.08,221.0,WeatherDisplay:10.37,2014-03-19 20:50:00,
2014-03-19 15:55:00,34.4,27.6,29.97,NW,320,16.1,16.1,76,0.00,BKN,,0.08,213.0,WeatherDisplay:10.37,2014-03-19 20:55:00,
2014-03-19 16:00:00,34.4,27.6,29.97,WNW,291,21.9,21.9,76,0.00,BKN,,0.08,172.0,WeatherDisplay:10.37,2014-03-19 21:00:00,
2014-03-19 16:05:00,34.4,27.3,29.97,WNW,301,21.9,21.9,75,0.00,BKN,,0.08,197.0,WeatherDisplay:10.37,2014-03-19 21:05:00,
2014-03-19 16:10:00,34.6,27.8,29.97,NW,306,18.4,18.4,76,0.00,BKN,,0.08,186.0,WeatherDisplay:10.37,2014-03-19 21:10:00,
2014-03-19 16:15:00,34.8,28.0,29.97,NW,311,16.1,16.1,76,0.00,BKN,,0.08,148.0,WeatherDisplay:10.37,2014-03-19 21:15:00,
2014-03-19 16:20:00,34.9,28.1,29.97,NW,311,19.6,19.6,76,0.00,BKN,,0.08,167.0,WeatherDisplay:10.37,2014-03-19 21:20:00,
2014-03-19 16:25:00,35.0,28.5,29.97,WNW,303,15.0,15.0,77,0.00,BKN,,0.08,116.0,WeatherDisplay:10.37,2014-03-19 21:25:00,
2014-03-19 16:30:00,35.0,28.5,29.97,WNW,294,13.8,13.8,77,0.00,BKN,,0.08,148.0,WeatherDisplay:10.37,2014-03-19 21:30:00,
2014-03-19 16:35:00,35.0,28.5,29.97,NW,306,19.6,19.6,77,0.00,BKN,,0.08,153.0,WeatherDisplay:10.37,2014-03-19 21:35:00,
2014-03-19 16:40:00,35.1,28.9,29.97,WNW,302,18.4,18.4,78,0.00,BKN,,0.08,111.0,WeatherDisplay:10.37,2014-03-19 21:40:00,
2014-03-19 16:45:00,35.1,28.9,29.97,WNW,302,17.0,17.0,78,0.00,BKN,,0.08,72.0,WeatherDisplay:10.37,2014-03-19 21:45:00,
2014-03-19 16:50:00,35.1,29.2,29.97,WNW,296,15.0,15.0,79,0.00,BKN,,0.08,104.0,WeatherDisplay:10.37,2014-03-19 21:50:00,
2014-03-19 16:55:00,35.1,29.6,29.98,WNW,300,11.5,11.5,80,0.00,BKN,,0.08,93.0,WeatherDisplay:10.37,2014-03-19 21:55:00,
2014-03-19 17:00:00,35.1,29.2,29.98,WNW,302,3.5,3.5,79,0.00,BKN,,0.08,97.0,WeatherDisplay:10.37,2014-03-19 22:00:00,
2014-03-19 17:05:00,35.1,29.2,29.98,WNW,288,6.0,6.0,79,0.00,BKN,,0.08,104.0,WeatherDisplay:10.37,2014-03-19 22:05:00,
2014-03-19 17:10:00,35.2,29.3,29.98,WNW,299,17.3,17.3,79,0.00,BKN,,0.08,120.0,WeatherDisplay:10.37,2014-03-19 22:10:00,
2014-03-19 17:15:00,35.3,29.4,29.98,WNW,298,13.8,13.8,79,0.00,BKN,,0.08,125.0,WeatherDisplay:10.37,2014-03-19 22:15:00,
2014-03-19 17:20:00,35.4,29.5,29.98,WNW,290,15.0,15.0,79,0.00,BKN,,0.08,109.0,WeatherDisplay:10.37,2014-03-19 22:20:00,
2014-03-19 17:25:00,35.5,29.3,29.98,WNW,297,16.1,16.1,78,0.00,BKN,,0.08,113.0,WeatherDisplay:10.37,2014-03-19 22:25:00,
2014-03-19 17:30:00,35.6,29.1,29.98,WNW,299,18.4,18.4,77,0.00,BKN,,0.08,102.0,WeatherDisplay:10.37,2014-03-19 22:30:00,
2014-03-19 17:35:00,35.7,29.5,29.98,WNW,300,13.8,13.8,78,0.00,BKN,,0.08,91.0,WeatherDisplay:10.37,2014-03-19 22:35:00,
2014-03-19 17:40:00,35.8,29.6,29.98,WNW,293,0.0,0.0,78,0.00,BKN,,0.08,134.0,WeatherDisplay:10.37,2014-03-19 22:40:00,
2014-03-19 17:45:00,35.9,30.0,29.98,West,281,0.0,0.0,79,0.00,BKN,,0.08,186.0,WeatherDisplay:10.37,2014-03-19 22:45:00,
2014-03-19 17:50:00,36.0,29.8,29.98,WNW,299,3.5,4.0,78,0.00,SCT,,0.08,113.0,WeatherDisplay:10.37,2014-03-19 22:50:00,
2014-03-19 17:55:00,36.1,29.9,29.99,WNW,300,10.4,10.4,78,0.00,SCT,,0.08,111.0,WeatherDisplay:10.37,2014-03-19 22:55:00,
2014-03-19 18:00:00,36.2,30.3,29.99,WNW,294,10.4,10.4,79,0.00,SCT,,0.08,95.0,WeatherDisplay:10.37,2014-03-19 23:00:00,
2014-03-19 18:05:00,36.2,30.0,29.99,WNW,286,12.7,12.7,78,0.00,SCT,,0.08,84.0,WeatherDisplay:10.37,2014-03-19 23:05:00,
2014-03-19 18:10:00,36.2,30.0,29.99,WNW,293,16.1,16.1,78,0.00,SCT,,0.08,79.0,WeatherDisplay:10.37,2014-03-19 23:10:00,
2014-03-19 18:15:00,36.3,29.8,29.99,WNW,287,11.5,11.5,77,0.00,BKN,,0.08,69.0,WeatherDisplay:10.37,2014-03-19 23:15:00,
2014-03-19 18:21:00,36.2,30.0,29.99,WNW,303,11.5,11.5,78,0.00,BKN,,0.08,53.0,WeatherDisplay:10.37,2014-03-19 23:21:00,
2014-03-19 18:26:00,36.2,30.0,30.00,WNW,284,15.0,15.0,78,0.00,BKN,,0.08,56.0,WeatherDisplay:10.37,2014-03-19 23:26:00,
2014-03-19 18:31:00,36.2,30.0,30.00,WNW,282,12.7,12.7,78,0.00,SCT,,0.08,65.0,WeatherDisplay:10.37,2014-03-19 23:31:00,
2014-03-19 18:35:00,36.2,30.0,30.00,WNW,290,10.4,10.4,78,0.00,SCT,,0.08,49.0,WeatherDisplay:10.37,2014-03-19 23:35:00,
2014-03-19 18:41:00,36.2,30.0,30.00,WNW,285,12.7,12.7,78,0.00,SCT,,0.08,46.0,WeatherDisplay:10.37,2014-03-19 23:41:00,
2014-03-19 18:45:00,36.1,30.2,30.00,WNW,288,10.4,10.4,79,0.00,SCT,,0.08,42.0,WeatherDisplay:10.37,2014-03-19 23:45:00,
2014-03-19 18:50:00,36.0,29.8,30.00,WNW,288,17.0,17.0,78,0.00,CLR,,0.08,51.0,WeatherDisplay:10.37,2014-03-19 23:50:00,
2014-03-19 18:56:00,36.1,29.6,30.00,WNW,288,13.8,13.8,77,0.00,CLR,,0.08,44.0,WeatherDisplay:10.37,2014-03-19 23:56:00,
2014-03-19 19:01:00,36.1,29.6,30.00,WNW,289,19.6,19.6,77,0.00,BKN,,0.08,18.0,WeatherDisplay:10.37,2014-03-20 00:01:00,
2014-03-19 19:05:00,36.0,29.5,30.00,WNW,290,10.4,10.4,77,0.00,BKN,,0.08,12.0,WeatherDisplay:10.37,2014-03-20 00:05:00,
2014-03-19 19:11:00,35.7,29.2,30.00,WNW,294,11.5,11.5,77,0.00,SCT,,0.08,9.0,WeatherDisplay:10.37,2014-03-20 00:11:00,
2014-03-19 19:16:00,35.5,29.0,30.00,WNW,298,0.0,0.0,77,0.00,CLR,,0.08,7.0,WeatherDisplay:10.37,2014-03-20 00:16:00,
2014-03-19 19:21:00,35.2,29.0,30.00,WNW,298,0.0,0.0,78,0.00,,,0.08,0.0,WeatherDisplay:10.37,2014-03-20 00:21:00,
2014-03-19 19:26:00,34.8,29.0,30.00,WNW,298,0.0,0.0,79,0.00,,,0.08,0.0,WeatherDisplay:10.37,2014-03-20 00:26:00,
2014-03-19 19:31:00,34.5,29.0,30.00,WNW,298,0.0,0.0,80,0.00,,,0.08,0.0,WeatherDisplay:10.37,2014-03-20 00:31:00,
2014-03-19 19:36:00,34.4,28.9,30.00,WNW,298,0.0,0.0,80,0.00,,,0.08,0.0,WeatherDisplay:10.37,2014-03-20 00:36:00,
2014-03-19 19:41:00,34.3,29.1,30.01,WNW,298,0.0,0.0,81,0.00,,,0.08,0.0,WeatherDisplay:10.37,2014-03-20 00:41:00,
2014-03-19 19:46:00,34.1,28.9,30.01,WNW,298,0.0,0.0,81,0.00,,,0.08,0.0,WeatherDisplay:10.37,2014-03-20 00:46:00,
2014-03-19 19:51:00,33.8,28.9,30.01,WNW,298,0.0,0.0,82,0.00,,,0.08,0.0,WeatherDisplay:10.37,2014-03-20 00:51:00,
2014-03-19 19:56:00,33.6,29.0,30.01,WNW,298,0.0,0.0,83,0.00,,,0.08,0.0,WeatherDisplay:10.37,2014-03-20 00:56:00,
2014-03-19 20:01:00,33.4,28.8,30.01,WNW,298,0.0,0.0,83,0.00,,,0.08,0.0,WeatherDisplay:10.37,2014-03-20 01:01:00,
2014-03-19 20:06:00,33.2,28.9,30.01,WNW,298,0.0,0.0,84,0.00,,,0.08,0.0,WeatherDisplay:10.37,2014-03-20 01:06:00,
2014-03-19 20:11:00,33.1,28.8,30.01,WNW,298,0.0,0.0,84,0.00,,,0.08,0.0,WeatherDisplay:10.37,2014-03-20 01:11:00,
2014-03-19 20:16:00,32.9,28.6,30.01,WNW,298,0.0,0.0,84,0.00,,,0.08,0.0,WeatherDisplay:10.37,2014-03-20 01:16:00,
2014-03-19 20:21:00,32.7,28.4,30.01,WNW,298,0.0,0.0,84,0.00,,,0.08,0.0,WeatherDisplay:10.37,2014-03-20 01:21:00,
2014-03-19 20:26:00,32.4,28.1,30.01,WNW,298,0.0,0.0,84,0.00,,,0.08,0.0,WeatherDisplay:10.37,2014-03-20 01:26:00,
2014-03-19 20:31:00,32.1,27.8,30.01,WNW,298,0.0,0.0,84,0.00,,,0.08,0.0,WeatherDisplay:10.37,2014-03-20 01:31:00,
2014-03-19 20:37:00,32.0,28.0,30.01,WNW,298,0.0,0.0,85,0.00,,,0.08,0.0,WeatherDisplay:10.37,2014-03-20 01:37:00,
2014-03-19 20:42:00,31.9,27.9,30.02,WNW,298,0.0,0.0,85,0.00,,,0.08,0.0,WeatherDisplay:10.37,2014-03-20 01:42:00,
2014-03-19 20:47:00,31.7,27.7,30.02,WNW,298,0.0,0.0,85,0.00,,,0.08,0.0,WeatherDisplay:10.37,2014-03-20 01:47:00,
2014-03-19 20:52:00,31.5,27.5,30.02,WNW,298,0.0,0.0,85,0.00,,,0.08,0.0,WeatherDisplay:10.37,2014-03-20 01:52:00,
2014-03-19 20:57:00,31.3,27.0,30.02,WNW,298,0.0,0.0,84,0.00,,,0.08,0.0,WeatherDisplay:10.37,2014-03-20 01:57:00,
2014-03-19 21:02:00,31.1,26.8,30.02,WNW,298,0.0,0.0,84,0.00,,,0.08,0.0,WeatherDisplay:10.37,2014-03-20 02:02:00,
2014-03-19 21:07:00,30.9,26.9,30.02,WNW,298,0.0,0.0,85,0.00,,,0.08,0.0,WeatherDisplay:10.37,2014-03-20 02:07:00,
2014-03-19 21:12:00,30.6,26.6,30.02,WNW,298,0.0,0.0,85,0.00,,,0.08,0.0,WeatherDisplay:10.37,2014-03-20 02:12:00,
2014-03-19 21:17:00,30.4,26.7,30.02,WNW,298,0.0,0.0,86,0.00,,,0.08,0.0,WeatherDisplay:10.37,2014-03-20 02:17:00,
2014-03-19 21:22:00,30.2,26.5,30.02,WNW,298,0.0,0.0,86,0.00,,,0.08,0.0,WeatherDisplay:10.37,2014-03-20 02:22:00,
2014-03-19 21:27:00,30.1,26.4,30.02,WNW,298,0.0,0.0,86,0.00,,,0.08,0.0,WeatherDisplay:10.37,2014-03-20 02:27:00,
2014-03-19 21:32:00,29.8,26.1,30.02,WNW,298,0.0,0.0,86,0.00,,,0.08,0.0,WeatherDisplay:10.37,2014-03-20 02:32:00,
2014-03-19 21:37:00,29.6,26.2,30.02,WNW,298,0.0,0.0,87,0.00,,,0.08,0.0,WeatherDisplay:10.37,2014-03-20 02:37:00,
2014-03-19 21:42:00,29.4,26.0,30.02,WNW,298,1.1,0.0,87,0.00,,,0.08,0.0,WeatherDisplay:10.37,2014-03-20 02:42:00,
2014-03-19 21:47:00,29.2,25.8,30.02,WNW,298,0.0,0.0,87,0.00,,,0.08,0.0,WeatherDisplay:10.37,2014-03-20 02:47:00,
2014-03-19 21:52:00,29.0,25.6,30.02,WNW,298,0.0,0.0,87,0.00,,,0.08,0.0,WeatherDisplay:10.37,2014-03-20 02:52:00,
2014-03-19 21:57:00,28.8,25.4,30.02,WNW,298,0.0,0.1,87,0.00,,,0.08,0.0,WeatherDisplay:10.37,2014-03-20 02:57:00,
2014-03-19 22:03:00,28.7,25.3,30.02,WNW,298,0.0,0.2,87,0.00,,,0.08,0.0,WeatherDisplay:10.37,2014-03-20 03:03:00,
2014-03-19 22:08:00,28.5,25.4,30.02,WNW,298,0.0,0.0,88,0.00,,,0.08,0.0,WeatherDisplay:10.37,2014-03-20 03:08:00,
2014-03-19 22:13:00,28.4,25.3,30.02,WNW,298,0.0,0.0,88,0.00,,,0.08,0.0,WeatherDisplay:10.37,2014-03-20 03:13:00,
2014-03-19 22:18:00,28.2,25.1,30.02,WNW,298,0.0,0.0,88,0.00,,,0.08,0.0,WeatherDisplay:10.37,2014-03-20 03:18:00,
2014-03-19 22:22:00,28.0,24.9,30.02,WNW,298,0.0,0.0,88,0.00,,,0.08,0.0,WeatherDisplay:10.37,2014-03-20 03:22:00,
2014-03-19 22:28:00,27.8,25.0,30.02,WNW,298,1.1,0.0,89,0.00,,,0.08,0.0,WeatherDisplay:10.37,2014-03-20 03:28:00,
2014-03-19 22:33:00,27.7,24.9,30.02,WNW,298,0.0,0.0,89,0.00,,,0.08,0.0,WeatherDisplay:10.37,2014-03-20 03:33:00,
2014-03-19 22:38:00,27.6,24.8,30.02,WNW,298,0.0,0.0,89,0.00,,,0.08,0.0,WeatherDisplay:10.37,2014-03-20 03:38:00,
2014-03-19 22:43:00,27.5,25.0,30.02,WNW,298,0.0,0.0,90,0.00,,,0.08,0.0,WeatherDisplay:10.37,2014-03-20 03:43:00,
2014-03-19 22:48:00,27.5,25.0,30.02,WNW,298,1.1,0.0,90,0.00,,,0.08,0.0,WeatherDisplay:10.37,2014-03-20 03:48:00,
2014-03-19 22:53:00,27.4,24.9,30.02,WNW,298,0.0,0.0,90,0.00,,,0.08,0.0,WeatherDisplay:10.37,2014-03-20 03:53:00,
2014-03-19 22:58:00,27.5,25.0,30.02,WNW,298,0.0,0.0,90,0.00,,,0.08,0.0,WeatherDisplay:10.37,2014-03-20 03:58:00,
2014-03-19 23:01:00,27.5,25.2,30.02,WNW,298,0.0,0.0,91,0.00,,,0.08,0.0,WeatherDisplay:10.37,2014-03-20 04:01:00,
2014-03-19 23:08:00,27.6,25.3,30.02,WNW,298,0.0,0.0,91,0.00,,,0.08,0.0,WeatherDisplay:10.37,2014-03-20 04:08:00,
2014-03-19 23:13:00,27.6,25.3,30.02,WNW,298,0.0,0.0,91,0.00,,,0.08,0.0,WeatherDisplay:10.37,2014-03-20 04:13:00,
2014-03-19 23:18:00,27.7,25.4,30.02,WNW,298,0.0,0.0,91,0.00,,,0.08,0.0,WeatherDisplay:10.37,2014-03-20 04:18:00,
2014-03-19 23:23:00,27.7,25.7,30.02,WNW,298,0.0,0.0,92,0.00,,,0.08,0.0,WeatherDisplay:10.37,2014-03-20 04:23:00,
2014-03-19 23:28:00,27.8,25.8,30.01,WNW,298,0.0,0.0,92,0.00,,,0.08,0.0,WeatherDisplay:10.37,2014-03-20 04:28:00,
2014-03-19 23:33:00,27.9,25.9,30.01,WNW,298,0.0,0.0,92,0.00,,,0.08,0.0,WeatherDisplay:10.37,2014-03-20 04:33:00,
2014-03-19 23:38:00,27.9,25.9,30.01,WNW,298,0.0,0.0,92,0.00,,,0.08,0.0,WeatherDisplay:10.37,2014-03-20 04:38:00,
2014-03-19 23:43:00,28.0,26.0,30.01,WNW,298,0.0,0.0,92,0.00,,,0.08,0.0,WeatherDisplay:10.37,2014-03-20 04:43:00,
2014-03-19 23:48:00,28.0,26.0,30.01,WNW,298,0.0,0.0,92,0.00,,,0.08,0.0,WeatherDisplay:10.37,2014-03-20 04:48:00,
2014-03-19 23:53:00,28.1,26.1,30.01,WNW,298,0.0,0.0,92,0.00,,,0.08,0.0,WeatherDisplay:10.37,2014-03-20 04:53:00,
2014-03-19 23:58:00,28.1,26.3,30.01,WNW,298,0.0,0.0,93,0.00,,,0.08,0.0,WeatherDisplay:10.37,2014-03-20 04:58:00,